sensor_id;sensor_type;location;lat;lon;timestamp;temperature;humidity
40756;DHT22;26461;45.630;9.418;2022-12-26T00:01:21;9.50;99.90
40756;DHT22;26461;45.630;9.418;2022-12-26T00:04:31;9.50;99.90
40756;DHT22;26461;45.630;9.418;2022-12-26T00:07:36;9.50;99.90
40756;DHT22;26461;45.630;9.418;2022-12-26T00:10:46;9.40;99.90
40756;DHT22;26461;45.630;9.418;2022-12-26T00:13:59;9.40;99.90
40756;DHT22;26461;45.630;9.418;2022-12-26T00:17:09;9.40;99.90
40756;DHT22;26461;45.630;9.418;2022-12-26T00:20:18;9.30;99.90
40756;DHT22;26461;45.630;9.418;2022-12-26T00:23:31;9.30;99.90
40756;DHT22;26461;45.630;9.418;2022-12-26T00:26:41;9.40;99.90
40756;DHT22;26461;45.630;9.418;2022-12-26T00:29:51;9.30;99.90
40756;DHT22;26461;45.630;9.418;2022-12-26T00:33:01;9.40;99.90
40756;DHT22;26461;45.630;9.418;2022-12-26T00:36:18;9.40;99.90
40756;DHT22;26461;45.630;9.418;2022-12-26T00:39:28;9.40;99.90
40756;DHT22;26461;45.630;9.418;2022-12-26T00:42:38;9.50;99.90
40756;DHT22;26461;45.630;9.418;2022-12-26T00:45:48;9.40;99.90
40756;DHT22;26461;45.630;9.418;2022-12-26T00:48:58;9.40;99.90
40756;DHT22;26461;45.630;9.418;2022-12-26T00:52:08;9.40;99.90
40756;DHT22;26461;45.630;9.418;2022-12-26T00:55:18;9.40;99.90
40756;DHT22;26461;45.630;9.418;2022-12-26T00:58:28;9.40;99.90
40756;DHT22;26461;45.630;9.418;2022-12-26T01:01:38;9.40;99.90
40756;DHT22;26461;45.630;9.418;2022-12-26T01:04:49;9.40;99.90
40756;DHT22;26461;45.630;9.418;2022-12-26T01:07:59;9.40;99.90
40756;DHT22;26461;45.630;9.418;2022-12-26T01:11:11;9.40;99.90
40756;DHT22;26461;45.630;9.418;2022-12-26T01:14:22;9.40;99.90
40756;DHT22;26461;45.630;9.418;2022-12-26T01:17:32;9.40;99.90
40756;DHT22;26461;45.630;9.418;2022-12-26T01:20:42;9.40;99.90
40756;DHT22;26461;45.630;9.418;2022-12-26T01:23:51;9.50;99.90
40756;DHT22;26461;45.630;9.418;2022-12-26T01:26:56;9.40;99.90
40756;DHT22;26461;45.630;9.418;2022-12-26T01:30:06;9.40;99.90
40756;DHT22;26461;45.630;9.418;2022-12-26T01:33:16;9.40;99.90
40756;DHT22;26461;45.630;9.418;2022-12-26T01:36:26;9.50;99.90
40756;DHT22;26461;45.630;9.418;2022-12-26T01:39:36;9.50;99.90
40756;DHT22;26461;45.630;9.418;2022-12-26T01:42:46;9.40;99.90
40756;DHT22;26461;45.630;9.418;2022-12-26T01:45:56;9.50;99.90
40756;DHT22;26461;45.630;9.418;2022-12-26T01:49:20;9.50;99.90
40756;DHT22;26461;45.630;9.418;2022-12-26T01:52:43;9.50;99.90
40756;DHT22;26461;45.630;9.418;2022-12-26T01:56:05;9.40;99.90
40756;DHT22;26461;45.630;9.418;2022-12-26T01:59:22;9.40;99.90
40756;DHT22;26461;45.630;9.418;2022-12-26T02:02:33;9.40;99.90
40756;DHT22;26461;45.630;9.418;2022-12-26T02:06:03;9.40;99.90
40756;DHT22;26461;45.630;9.418;2022-12-26T02:09:12;9.40;99.90
40756;DHT22;26461;45.630;9.418;2022-12-26T02:12:27;9.40;99.90
40756;DHT22;26461;45.630;9.418;2022-12-26T02:15:39;9.30;99.90
40756;DHT22;26461;45.630;9.418;2022-12-26T02:18:50;9.30;99.90
40756;DHT22;26461;45.630;9.418;2022-12-26T02:22:23;9.20;99.90
40756;DHT22;26461;45.630;9.418;2022-12-26T02:29:37;9.30;99.90
40756;DHT22;26461;45.630;9.418;2022-12-26T02:33:23;9.30;99.90
40756;DHT22;26461;45.630;9.418;2022-12-26T02:43:16;9.30;99.90
40756;DHT22;26461;45.630;9.418;2022-12-26T02:46:36;9.30;99.90
40756;DHT22;26461;45.630;9.418;2022-12-26T02:54:38;9.20;99.90
40756;DHT22;26461;45.630;9.418;2022-12-26T02:58:19;9.20;99.90
40756;DHT22;26461;45.630;9.418;2022-12-26T03:01:50;9.20;99.90
40756;DHT22;26461;45.630;9.418;2022-12-26T03:05:32;9.20;99.90
40756;DHT22;26461;45.630;9.418;2022-12-26T03:09:10;9.10;99.90
40756;DHT22;26461;45.630;9.418;2022-12-26T03:12:49;9.20;99.90
40756;DHT22;26461;45.630;9.418;2022-12-26T03:16:21;9.20;99.90
40756;DHT22;26461;45.630;9.418;2022-12-26T03:20:15;9.20;99.90
40756;DHT22;26461;45.630;9.418;2022-12-26T03:23:24;9.10;99.90
40756;DHT22;26461;45.630;9.418;2022-12-26T03:26:44;9.20;99.90
40756;DHT22;26461;45.630;9.418;2022-12-26T03:29:55;9.20;99.90
40756;DHT22;26461;45.630;9.418;2022-12-26T03:33:28;9.30;99.90
40756;DHT22;26461;45.630;9.418;2022-12-26T03:37:26;9.20;99.90
40756;DHT22;26461;45.630;9.418;2022-12-26T03:40:58;9.30;99.90
40756;DHT22;26461;45.630;9.418;2022-12-26T03:44:31;9.30;99.90
40756;DHT22;26461;45.630;9.418;2022-12-26T03:48:32;9.30;99.90
40756;DHT22;26461;45.630;9.418;2022-12-26T03:56:08;9.30;99.90
40756;DHT22;26461;45.630;9.418;2022-12-26T04:00:18;9.20;99.90
40756;DHT22;26461;45.630;9.418;2022-12-26T04:03:47;9.30;99.90
40756;DHT22;26461;45.630;9.418;2022-12-26T04:07:24;9.30;99.90
40756;DHT22;26461;45.630;9.418;2022-12-26T04:10:57;9.30;99.90
40756;DHT22;26461;45.630;9.418;2022-12-26T04:18:01;9.30;99.90
40756;DHT22;26461;45.630;9.418;2022-12-26T04:21:44;9.30;99.90
40756;DHT22;26461;45.630;9.418;2022-12-26T04:25:27;9.30;99.90
40756;DHT22;26461;45.630;9.418;2022-12-26T04:28:56;9.30;99.90
40756;DHT22;26461;45.630;9.418;2022-12-26T04:36:08;9.20;99.90
40756;DHT22;26461;45.630;9.418;2022-12-26T04:39:39;9.20;99.90
40756;DHT22;26461;45.630;9.418;2022-12-26T04:43:12;9.20;99.90
40756;DHT22;26461;45.630;9.418;2022-12-26T04:46:44;9.20;99.90
40756;DHT22;26461;45.630;9.418;2022-12-26T04:49:55;9.20;99.90
40756;DHT22;26461;45.630;9.418;2022-12-26T04:53:23;9.30;99.90
40756;DHT22;26461;45.630;9.418;2022-12-26T04:56:33;9.30;99.90
40756;DHT22;26461;45.630;9.418;2022-12-26T04:59:43;9.30;99.90
40756;DHT22;26461;45.630;9.418;2022-12-26T05:02:53;9.10;99.90
40756;DHT22;26461;45.630;9.418;2022-12-26T05:06:22;9.10;99.90
40756;DHT22;26461;45.630;9.418;2022-12-26T05:09:52;9.10;99.90
40756;DHT22;26461;45.630;9.418;2022-12-26T05:13:02;9.10;99.90
40756;DHT22;26461;45.630;9.418;2022-12-26T05:16:12;9.10;99.90
40756;DHT22;26461;45.630;9.418;2022-12-26T05:19:40;9.10;99.90
40756;DHT22;26461;45.630;9.418;2022-12-26T05:23:18;9.10;99.90
40756;DHT22;26461;45.630;9.418;2022-12-26T05:26:47;9.10;99.90
40756;DHT22;26461;45.630;9.418;2022-12-26T05:30:15;9.10;99.90
40756;DHT22;26461;45.630;9.418;2022-12-26T05:33:25;9.10;99.90
40756;DHT22;26461;45.630;9.418;2022-12-26T05:36:55;9.10;99.90
40756;DHT22;26461;45.630;9.418;2022-12-26T05:40:07;9.00;99.90
40756;DHT22;26461;45.630;9.418;2022-12-26T05:43:17;9.10;99.90
40756;DHT22;26461;45.630;9.418;2022-12-26T05:46:28;9.00;99.90
40756;DHT22;26461;45.630;9.418;2022-12-26T05:49:38;9.10;99.90
40756;DHT22;26461;45.630;9.418;2022-12-26T05:52:48;9.00;99.90
40756;DHT22;26461;45.630;9.418;2022-12-26T05:56:06;9.10;99.90
40756;DHT22;26461;45.630;9.418;2022-12-26T05:59:16;9.00;99.90
40756;DHT22;26461;45.630;9.418;2022-12-26T06:02:21;9.00;99.90
40756;DHT22;26461;45.630;9.418;2022-12-26T06:05:31;9.10;99.90
40756;DHT22;26461;45.630;9.418;2022-12-26T06:08:41;9.00;99.90
40756;DHT22;26461;45.630;9.418;2022-12-26T06:11:51;9.10;99.90
40756;DHT22;26461;45.630;9.418;2022-12-26T06:15:01;9.10;99.90
40756;DHT22;26461;45.630;9.418;2022-12-26T06:18:11;9.10;99.90
40756;DHT22;26461;45.630;9.418;2022-12-26T06:21:21;9.20;99.90
40756;DHT22;26461;45.630;9.418;2022-12-26T06:24:31;9.10;99.90
40756;DHT22;26461;45.630;9.418;2022-12-26T06:27:42;9.10;99.90
40756;DHT22;26461;45.630;9.418;2022-12-26T06:30:52;9.10;99.90
40756;DHT22;26461;45.630;9.418;2022-12-26T06:34:03;9.10;99.90
40756;DHT22;26461;45.630;9.418;2022-12-26T06:37:13;9.10;99.90
40756;DHT22;26461;45.630;9.418;2022-12-26T06:40:23;9.10;99.90
40756;DHT22;26461;45.630;9.418;2022-12-26T06:43:33;9.10;99.90
40756;DHT22;26461;45.630;9.418;2022-12-26T06:46:43;9.10;99.90
40756;DHT22;26461;45.630;9.418;2022-12-26T06:49:52;9.10;99.90
40756;DHT22;26461;45.630;9.418;2022-12-26T06:53:02;9.10;99.90
40756;DHT22;26461;45.630;9.418;2022-12-26T06:56:15;9.10;99.90
40756;DHT22;26461;45.630;9.418;2022-12-26T06:59:25;9.10;99.90
40756;DHT22;26461;45.630;9.418;2022-12-26T07:02:35;9.10;99.90
40756;DHT22;26461;45.630;9.418;2022-12-26T07:05:45;9.10;99.90
40756;DHT22;26461;45.630;9.418;2022-12-26T07:08:51;9.10;99.90
40756;DHT22;26461;45.630;9.418;2022-12-26T07:12:02;9.10;99.90
40756;DHT22;26461;45.630;9.418;2022-12-26T07:15:12;9.00;99.90
40756;DHT22;26461;45.630;9.418;2022-12-26T07:18:22;9.00;99.90
40756;DHT22;26461;45.630;9.418;2022-12-26T07:21:32;9.10;99.90
40756;DHT22;26461;45.630;9.418;2022-12-26T07:24:42;9.00;99.90
40756;DHT22;26461;45.630;9.418;2022-12-26T07:27:53;9.00;99.90
40756;DHT22;26461;45.630;9.418;2022-12-26T07:31:03;9.00;99.90
40756;DHT22;26461;45.630;9.418;2022-12-26T07:34:13;9.10;99.90
40756;DHT22;26461;45.630;9.418;2022-12-26T07:37:24;9.00;99.90
40756;DHT22;26461;45.630;9.418;2022-12-26T07:40:35;9.00;99.90
40756;DHT22;26461;45.630;9.418;2022-12-26T07:43:45;9.00;99.90
40756;DHT22;26461;45.630;9.418;2022-12-26T07:46:55;9.00;99.90
40756;DHT22;26461;45.630;9.418;2022-12-26T07:50:06;9.00;99.90
40756;DHT22;26461;45.630;9.418;2022-12-26T07:53:16;9.10;99.90
40756;DHT22;26461;45.630;9.418;2022-12-26T07:56:25;9.10;99.90
40756;DHT22;26461;45.630;9.418;2022-12-26T07:59:36;9.10;99.90
40756;DHT22;26461;45.630;9.418;2022-12-26T08:02:50;9.10;99.90
40756;DHT22;26461;45.630;9.418;2022-12-26T08:06:01;9.10;99.90
40756;DHT22;26461;45.630;9.418;2022-12-26T08:09:13;9.10;99.90
40756;DHT22;26461;45.630;9.418;2022-12-26T08:12:25;9.10;99.90
40756;DHT22;26461;45.630;9.418;2022-12-26T08:15:39;9.20;99.90
40756;DHT22;26461;45.630;9.418;2022-12-26T08:18:49;9.20;99.90
40756;DHT22;26461;45.630;9.418;2022-12-26T08:21:59;9.20;99.90
40756;DHT22;26461;45.630;9.418;2022-12-26T08:25:09;9.20;99.90
40756;DHT22;26461;45.630;9.418;2022-12-26T08:28:21;9.20;99.90
40756;DHT22;26461;45.630;9.418;2022-12-26T08:31:30;9.20;99.90
40756;DHT22;26461;45.630;9.418;2022-12-26T08:34:40;9.20;99.90
40756;DHT22;26461;45.630;9.418;2022-12-26T08:37:50;9.30;99.90
40756;DHT22;26461;45.630;9.418;2022-12-26T08:41:00;9.30;99.90
40756;DHT22;26461;45.630;9.418;2022-12-26T08:44:11;9.30;99.90
40756;DHT22;26461;45.630;9.418;2022-12-26T08:47:22;9.30;99.90
40756;DHT22;26461;45.630;9.418;2022-12-26T08:50:35;9.30;99.90
40756;DHT22;26461;45.630;9.418;2022-12-26T08:53:45;9.30;99.90
40756;DHT22;26461;45.630;9.418;2022-12-26T08:56:56;9.40;99.90
40756;DHT22;26461;45.630;9.418;2022-12-26T09:00:07;9.40;99.90
40756;DHT22;26461;45.630;9.418;2022-12-26T09:03:16;9.40;99.90
40756;DHT22;26461;45.630;9.418;2022-12-26T09:06:27;9.40;99.90
40756;DHT22;26461;45.630;9.418;2022-12-26T09:09:38;9.40;99.90
40756;DHT22;26461;45.630;9.418;2022-12-26T09:12:48;9.50;99.90
40756;DHT22;26461;45.630;9.418;2022-12-26T09:16:19;9.50;99.90
40756;DHT22;26461;45.630;9.418;2022-12-26T09:19:29;9.50;99.90
40756;DHT22;26461;45.630;9.418;2022-12-26T09:22:41;9.50;99.90
40756;DHT22;26461;45.630;9.418;2022-12-26T09:26:15;9.50;99.90
40756;DHT22;26461;45.630;9.418;2022-12-26T09:29:25;9.50;99.90
40756;DHT22;26461;45.630;9.418;2022-12-26T09:32:35;9.50;99.90
40756;DHT22;26461;45.630;9.418;2022-12-26T09:35:44;9.50;99.90
40756;DHT22;26461;45.630;9.418;2022-12-26T09:38:56;9.50;99.90
40756;DHT22;26461;45.630;9.418;2022-12-26T09:45:50;9.50;99.90
40756;DHT22;26461;45.630;9.418;2022-12-26T09:49:18;9.50;99.90
40756;DHT22;26461;45.630;9.418;2022-12-26T09:52:45;9.40;99.90
40756;DHT22;26461;45.630;9.418;2022-12-26T09:55:58;9.50;99.90
40756;DHT22;26461;45.630;9.418;2022-12-26T09:59:18;9.50;99.90
40756;DHT22;26461;45.630;9.418;2022-12-26T10:02:30;9.50;99.90
40756;DHT22;26461;45.630;9.418;2022-12-26T10:06:33;9.50;99.90
40756;DHT22;26461;45.630;9.418;2022-12-26T10:16:19;9.60;99.90
40756;DHT22;26461;45.630;9.418;2022-12-26T10:23:41;9.60;99.90
40756;DHT22;26461;45.630;9.418;2022-12-26T10:27:02;9.70;99.90
40756;DHT22;26461;45.630;9.418;2022-12-26T10:30:21;9.70;99.90
40756;DHT22;26461;45.630;9.418;2022-12-26T10:37:15;9.70;99.90
40756;DHT22;26461;45.630;9.418;2022-12-26T10:40:36;9.70;99.90
40756;DHT22;26461;45.630;9.418;2022-12-26T10:43:46;9.70;99.90
40756;DHT22;26461;45.630;9.418;2022-12-26T10:47:03;9.70;99.90
40756;DHT22;26461;45.630;9.418;2022-12-26T10:50:17;9.80;99.90
40756;DHT22;26461;45.630;9.418;2022-12-26T10:53:29;9.80;99.90
40756;DHT22;26461;45.630;9.418;2022-12-26T10:56:40;9.80;99.90
40756;DHT22;26461;45.630;9.418;2022-12-26T10:59:51;9.80;99.90
40756;DHT22;26461;45.630;9.418;2022-12-26T11:03:08;9.80;99.90
40756;DHT22;26461;45.630;9.418;2022-12-26T11:06:18;9.90;99.90
40756;DHT22;26461;45.630;9.418;2022-12-26T11:09:41;9.90;99.90
40756;DHT22;26461;45.630;9.418;2022-12-26T11:12:53;9.90;99.90
40756;DHT22;26461;45.630;9.418;2022-12-26T11:16:04;9.90;99.90
40756;DHT22;26461;45.630;9.418;2022-12-26T11:19:28;9.90;99.90
40756;DHT22;26461;45.630;9.418;2022-12-26T11:22:38;9.90;99.90
40756;DHT22;26461;45.630;9.418;2022-12-26T11:25:51;9.90;99.90
40756;DHT22;26461;45.630;9.418;2022-12-26T11:29:17;9.90;99.90
40756;DHT22;26461;45.630;9.418;2022-12-26T11:32:28;9.90;99.90
40756;DHT22;26461;45.630;9.418;2022-12-26T11:35:52;10.00;99.90
40756;DHT22;26461;45.630;9.418;2022-12-26T11:39:05;10.00;99.90
40756;DHT22;26461;45.630;9.418;2022-12-26T11:42:20;10.00;99.90
40756;DHT22;26461;45.630;9.418;2022-12-26T11:45:31;10.10;99.90
40756;DHT22;26461;45.630;9.418;2022-12-26T11:48:48;10.10;99.90
40756;DHT22;26461;45.630;9.418;2022-12-26T11:52:01;10.20;99.90
40756;DHT22;26461;45.630;9.418;2022-12-26T11:58:33;10.10;99.90
40756;DHT22;26461;45.630;9.418;2022-12-26T12:01:44;10.10;99.90
40756;DHT22;26461;45.630;9.418;2022-12-26T12:04:58;10.10;99.90
40756;DHT22;26461;45.630;9.418;2022-12-26T12:15:23;10.10;99.90
40756;DHT22;26461;45.630;9.418;2022-12-26T12:18:56;10.20;99.90
40756;DHT22;26461;45.630;9.418;2022-12-26T12:22:10;10.20;99.90
40756;DHT22;26461;45.630;9.418;2022-12-26T12:25:52;10.20;99.90
40756;DHT22;26461;45.630;9.418;2022-12-26T12:29:19;10.20;99.90
40756;DHT22;26461;45.630;9.418;2022-12-26T12:36:15;10.30;99.90
40756;DHT22;26461;45.630;9.418;2022-12-26T12:58:19;10.30;99.90
40756;DHT22;26461;45.630;9.418;2022-12-26T13:01:18;10.30;99.90
40756;DHT22;26461;45.630;9.418;2022-12-26T13:04:40;10.30;99.90
40756;DHT22;26461;45.630;9.418;2022-12-26T13:08:00;10.20;99.90
40756;DHT22;26461;45.630;9.418;2022-12-26T13:11:16;10.30;99.90
40756;DHT22;26461;45.630;9.418;2022-12-26T13:14:35;10.30;99.90
40756;DHT22;26461;45.630;9.418;2022-12-26T13:21:11;10.30;99.90
40756;DHT22;26461;45.630;9.418;2022-12-26T13:24:33;10.30;99.90
40756;DHT22;26461;45.630;9.418;2022-12-26T13:27:45;10.30;99.90
40756;DHT22;26461;45.630;9.418;2022-12-26T13:30:55;10.40;99.90
40756;DHT22;26461;45.630;9.418;2022-12-26T13:34:08;10.40;99.90
40756;DHT22;26461;45.630;9.418;2022-12-26T13:41:01;10.40;99.90
40756;DHT22;26461;45.630;9.418;2022-12-26T13:44:39;10.40;99.90
40756;DHT22;26461;45.630;9.418;2022-12-26T13:47:49;10.40;99.90
40756;DHT22;26461;45.630;9.418;2022-12-26T13:51:03;10.40;99.90
40756;DHT22;26461;45.630;9.418;2022-12-26T13:54:16;10.30;99.90
40756;DHT22;26461;45.630;9.418;2022-12-26T13:57:39;10.40;99.90
40756;DHT22;26461;45.630;9.418;2022-12-26T14:00:54;10.40;99.90
40756;DHT22;26461;45.630;9.418;2022-12-26T14:07:46;10.40;99.90
40756;DHT22;26461;45.630;9.418;2022-12-26T14:15:01;10.40;99.90
40756;DHT22;26461;45.630;9.418;2022-12-26T14:25:52;10.40;99.90
40756;DHT22;26461;45.630;9.418;2022-12-26T14:49:54;10.40;99.90
40756;DHT22;26461;45.630;9.418;2022-12-26T14:56:36;10.50;99.90
40756;DHT22;26461;45.630;9.418;2022-12-26T15:07:50;10.50;99.90
40756;DHT22;26461;45.630;9.418;2022-12-26T15:11:24;10.50;99.90
40756;DHT22;26461;45.630;9.418;2022-12-26T15:35:51;10.40;99.90
40756;DHT22;26461;45.630;9.418;2022-12-26T15:46:22;10.30;99.90
40756;DHT22;26461;45.630;9.418;2022-12-26T15:50:36;10.40;99.90
40756;DHT22;26461;45.630;9.418;2022-12-26T16:00:21;10.30;99.90
40756;DHT22;26461;45.630;9.418;2022-12-26T16:03:48;10.30;99.90
40756;DHT22;26461;45.630;9.418;2022-12-26T16:07:02;10.30;99.90
40756;DHT22;26461;45.630;9.418;2022-12-26T16:13:35;10.20;99.90
40756;DHT22;26461;45.630;9.418;2022-12-26T16:16:45;10.30;99.90
40756;DHT22;26461;45.630;9.418;2022-12-26T16:19:56;10.20;99.90
40756;DHT22;26461;45.630;9.418;2022-12-26T16:23:14;10.20;99.90
40756;DHT22;26461;45.630;9.418;2022-12-26T16:26:29;10.10;99.90
40756;DHT22;26461;45.630;9.418;2022-12-26T16:29:51;10.10;99.90
40756;DHT22;26461;45.630;9.418;2022-12-26T16:32:57;10.10;99.90
40756;DHT22;26461;45.630;9.418;2022-12-26T16:36:19;10.20;99.90
40756;DHT22;26461;45.630;9.418;2022-12-26T16:39:29;10.10;99.90
40756;DHT22;26461;45.630;9.418;2022-12-26T16:42:42;10.10;99.90
40756;DHT22;26461;45.630;9.418;2022-12-26T16:45:55;10.10;99.90
40756;DHT22;26461;45.630;9.418;2022-12-26T16:49:09;10.10;99.90
40756;DHT22;26461;45.630;9.418;2022-12-26T16:52:36;10.00;99.90
40756;DHT22;26461;45.630;9.418;2022-12-26T16:55:48;10.10;99.90
40756;DHT22;26461;45.630;9.418;2022-12-26T16:59:27;10.00;99.90
40756;DHT22;26461;45.630;9.418;2022-12-26T17:02:44;10.00;99.90
40756;DHT22;26461;45.630;9.418;2022-12-26T17:05:55;10.00;99.90
40756;DHT22;26461;45.630;9.418;2022-12-26T17:09:09;10.00;99.90
40756;DHT22;26461;45.630;9.418;2022-12-26T17:12:21;10.00;99.90
40756;DHT22;26461;45.630;9.418;2022-12-26T17:15:39;10.00;99.90
40756;DHT22;26461;45.630;9.418;2022-12-26T17:18:53;10.00;99.90
40756;DHT22;26461;45.630;9.418;2022-12-26T17:28:30;10.10;99.90
40756;DHT22;26461;45.630;9.418;2022-12-26T17:31:42;10.10;99.90
40756;DHT22;26461;45.630;9.418;2022-12-26T17:34:48;10.10;99.90
40756;DHT22;26461;45.630;9.418;2022-12-26T17:38:01;10.20;99.90
40756;DHT22;26461;45.630;9.418;2022-12-26T17:41:15;10.10;99.90
40756;DHT22;26461;45.630;9.418;2022-12-26T17:44:36;10.10;99.90
40756;DHT22;26461;45.630;9.418;2022-12-26T17:47:52;10.10;99.90
40756;DHT22;26461;45.630;9.418;2022-12-26T17:51:05;10.00;99.90
40756;DHT22;26461;45.630;9.418;2022-12-26T17:54:11;10.00;99.90
40756;DHT22;26461;45.630;9.418;2022-12-26T17:57:28;10.00;99.90
40756;DHT22;26461;45.630;9.418;2022-12-26T18:00:39;10.00;99.90
40756;DHT22;26461;45.630;9.418;2022-12-26T18:03:49;10.00;99.90
40756;DHT22;26461;45.630;9.418;2022-12-26T18:07:02;9.90;99.90
40756;DHT22;26461;45.630;9.418;2022-12-26T18:10:18;10.00;99.90
40756;DHT22;26461;45.630;9.418;2022-12-26T18:13:29;10.00;99.90
40756;DHT22;26461;45.630;9.418;2022-12-26T18:16:39;9.90;99.90
40756;DHT22;26461;45.630;9.418;2022-12-26T18:19:50;9.90;99.90
40756;DHT22;26461;45.630;9.418;2022-12-26T18:22:56;10.00;99.90
40756;DHT22;26461;45.630;9.418;2022-12-26T18:26:04;10.00;99.90
40756;DHT22;26461;45.630;9.418;2022-12-26T18:29:15;9.90;99.90
40756;DHT22;26461;45.630;9.418;2022-12-26T18:32:30;9.90;99.90
40756;DHT22;26461;45.630;9.418;2022-12-26T18:35:41;9.90;99.90
40756;DHT22;26461;45.630;9.418;2022-12-26T18:38:47;9.90;99.90
40756;DHT22;26461;45.630;9.418;2022-12-26T18:41:59;9.90;99.90
40756;DHT22;26461;45.630;9.418;2022-12-26T18:45:09;9.90;99.90
40756;DHT22;26461;45.630;9.418;2022-12-26T18:48:19;9.90;99.90
40756;DHT22;26461;45.630;9.418;2022-12-26T18:51:28;9.90;99.90
40756;DHT22;26461;45.630;9.418;2022-12-26T18:54:33;9.90;99.90
40756;DHT22;26461;45.630;9.418;2022-12-26T18:57:45;9.90;99.90
40756;DHT22;26461;45.630;9.418;2022-12-26T19:00:57;9.90;99.90
40756;DHT22;26461;45.630;9.418;2022-12-26T19:04:09;9.80;99.90
40756;DHT22;26461;45.630;9.418;2022-12-26T19:07:20;9.80;99.90
40756;DHT22;26461;45.630;9.418;2022-12-26T19:10:28;9.90;99.90
40756;DHT22;26461;45.630;9.418;2022-12-26T19:13:39;9.90;99.90
40756;DHT22;26461;45.630;9.418;2022-12-26T19:16:50;9.80;99.90
40756;DHT22;26461;45.630;9.418;2022-12-26T19:19:54;9.80;99.90
40756;DHT22;26461;45.630;9.418;2022-12-26T19:23:06;9.80;99.90
40756;DHT22;26461;45.630;9.418;2022-12-26T19:26:17;9.80;99.90
40756;DHT22;26461;45.630;9.418;2022-12-26T19:29:27;9.80;99.90
40756;DHT22;26461;45.630;9.418;2022-12-26T19:32:37;9.90;99.90
40756;DHT22;26461;45.630;9.418;2022-12-26T19:35:54;9.90;99.90
40756;DHT22;26461;45.630;9.418;2022-12-26T19:38:59;9.80;99.90
40756;DHT22;26461;45.630;9.418;2022-12-26T19:42:09;9.80;99.90
40756;DHT22;26461;45.630;9.418;2022-12-26T19:45:15;9.90;99.90
40756;DHT22;26461;45.630;9.418;2022-12-26T19:48:25;9.80;99.90
40756;DHT22;26461;45.630;9.418;2022-12-26T19:51:31;9.80;99.90
40756;DHT22;26461;45.630;9.418;2022-12-26T19:54:41;9.90;99.90
40756;DHT22;26461;45.630;9.418;2022-12-26T19:57:50;9.80;99.90
40756;DHT22;26461;45.630;9.418;2022-12-26T20:01:07;9.80;99.90
40756;DHT22;26461;45.630;9.418;2022-12-26T20:04:17;9.80;99.90
40756;DHT22;26461;45.630;9.418;2022-12-26T20:07:27;9.80;99.90
40756;DHT22;26461;45.630;9.418;2022-12-26T20:10:37;9.80;99.90
40756;DHT22;26461;45.630;9.418;2022-12-26T20:13:48;9.80;99.90
40756;DHT22;26461;45.630;9.418;2022-12-26T20:16:59;9.80;99.90
40756;DHT22;26461;45.630;9.418;2022-12-26T20:20:05;9.80;99.90
40756;DHT22;26461;45.630;9.418;2022-12-26T20:23:20;9.80;99.90
40756;DHT22;26461;45.630;9.418;2022-12-26T20:26:29;9.80;99.90
40756;DHT22;26461;45.630;9.418;2022-12-26T20:29:39;9.90;99.90
40756;DHT22;26461;45.630;9.418;2022-12-26T20:32:49;9.90;99.90
40756;DHT22;26461;45.630;9.418;2022-12-26T20:36:12;9.90;99.90
40756;DHT22;26461;45.630;9.418;2022-12-26T20:39:23;10.00;99.90
40756;DHT22;26461;45.630;9.418;2022-12-26T20:42:34;10.00;99.90
40756;DHT22;26461;45.630;9.418;2022-12-26T20:45:44;10.00;99.90
40756;DHT22;26461;45.630;9.418;2022-12-26T20:48:54;9.90;99.90
40756;DHT22;26461;45.630;9.418;2022-12-26T20:52:04;10.00;99.90
40756;DHT22;26461;45.630;9.418;2022-12-26T20:55:14;10.00;99.90
40756;DHT22;26461;45.630;9.418;2022-12-26T20:58:28;10.00;99.90
40756;DHT22;26461;45.630;9.418;2022-12-26T21:01:38;10.00;99.90
40756;DHT22;26461;45.630;9.418;2022-12-26T21:04:48;10.10;99.90
40756;DHT22;26461;45.630;9.418;2022-12-26T21:07:59;10.10;99.90
40756;DHT22;26461;45.630;9.418;2022-12-26T21:11:15;10.00;99.90
40756;DHT22;26461;45.630;9.418;2022-12-26T21:14:25;10.20;99.90
40756;DHT22;26461;45.630;9.418;2022-12-26T21:17:34;10.10;99.90
40756;DHT22;26461;45.630;9.418;2022-12-26T21:20:46;10.10;99.90
40756;DHT22;26461;45.630;9.418;2022-12-26T21:24:15;10.00;99.90
40756;DHT22;26461;45.630;9.418;2022-12-26T21:27:25;10.10;99.90
40756;DHT22;26461;45.630;9.418;2022-12-26T21:30:35;10.10;99.90
40756;DHT22;26461;45.630;9.418;2022-12-26T21:33:45;10.10;99.90
40756;DHT22;26461;45.630;9.418;2022-12-26T21:36:56;10.10;99.90
40756;DHT22;26461;45.630;9.418;2022-12-26T21:40:24;10.00;99.90
40756;DHT22;26461;45.630;9.418;2022-12-26T21:43:31;10.10;99.90
40756;DHT22;26461;45.630;9.418;2022-12-26T21:46:40;10.10;99.90
40756;DHT22;26461;45.630;9.418;2022-12-26T21:49:50;10.10;99.90
40756;DHT22;26461;45.630;9.418;2022-12-26T21:53:00;10.10;99.90
40756;DHT22;26461;45.630;9.418;2022-12-26T21:56:12;10.10;99.90
40756;DHT22;26461;45.630;9.418;2022-12-26T21:59:22;10.10;99.90
40756;DHT22;26461;45.630;9.418;2022-12-26T22:02:51;10.10;99.90
40756;DHT22;26461;45.630;9.418;2022-12-26T22:06:15;10.10;99.90
40756;DHT22;26461;45.630;9.418;2022-12-26T22:09:24;10.10;99.90
40756;DHT22;26461;45.630;9.418;2022-12-26T22:12:34;10.10;99.90
40756;DHT22;26461;45.630;9.418;2022-12-26T22:16:06;10.00;99.90
40756;DHT22;26461;45.630;9.418;2022-12-26T22:19:16;10.10;99.90
40756;DHT22;26461;45.630;9.418;2022-12-26T22:22:26;10.10;99.90
40756;DHT22;26461;45.630;9.418;2022-12-26T22:25:36;10.00;99.90
40756;DHT22;26461;45.630;9.418;2022-12-26T22:28:42;10.10;99.90
40756;DHT22;26461;45.630;9.418;2022-12-26T22:31:52;10.00;99.90
40756;DHT22;26461;45.630;9.418;2022-12-26T22:35:02;10.00;99.90
40756;DHT22;26461;45.630;9.418;2022-12-26T22:38:08;10.00;99.90
40756;DHT22;26461;45.630;9.418;2022-12-26T22:41:17;10.00;99.90
40756;DHT22;26461;45.630;9.418;2022-12-26T22:44:27;10.00;99.90
40756;DHT22;26461;45.630;9.418;2022-12-26T22:47:32;10.00;99.90
40756;DHT22;26461;45.630;9.418;2022-12-26T22:50:45;10.00;99.90
40756;DHT22;26461;45.630;9.418;2022-12-26T22:53:58;10.00;99.90
40756;DHT22;26461;45.630;9.418;2022-12-26T22:57:03;9.90;99.90
40756;DHT22;26461;45.630;9.418;2022-12-26T23:00:14;9.90;99.90
40756;DHT22;26461;45.630;9.418;2022-12-26T23:03:26;9.90;99.90
40756;DHT22;26461;45.630;9.418;2022-12-26T23:06:37;9.80;99.90
40756;DHT22;26461;45.630;9.418;2022-12-26T23:09:48;9.80;99.90
40756;DHT22;26461;45.630;9.418;2022-12-26T23:12:59;9.80;99.90
40756;DHT22;26461;45.630;9.418;2022-12-26T23:16:21;9.80;99.90
40756;DHT22;26461;45.630;9.418;2022-12-26T23:19:43;9.80;99.90
40756;DHT22;26461;45.630;9.418;2022-12-26T23:23:13;9.80;99.90
40756;DHT22;26461;45.630;9.418;2022-12-26T23:26:20;9.80;99.90
40756;DHT22;26461;45.630;9.418;2022-12-26T23:29:29;9.80;99.90
40756;DHT22;26461;45.630;9.418;2022-12-26T23:32:58;9.80;99.90
40756;DHT22;26461;45.630;9.418;2022-12-26T23:36:08;9.80;99.90
40756;DHT22;26461;45.630;9.418;2022-12-26T23:39:13;9.80;99.90
40756;DHT22;26461;45.630;9.418;2022-12-26T23:42:23;9.80;99.90